^^
Grace C. Lehan Memorial Weather Station Historical Data
Daily Summary for January 13, 2022 Units:  Both    English   Metric
Daily Weekly Monthly Yearly
  High: Low: Average:
Temperature: 34 °F /  1.1 °C 28.7 °F /  -1.8 °C 31.2 °F /  -0.4 °C
Dew Point: 25.5 °F /  -3.6 °C 22.9 °F /  -5.1 °C 23.6 °F /  -4.7 °C
Humidity: 80% 68% 73%
Wind Speed: 0mph /  0km/h - 0mph /  0km/h
Wind Gust: 0mph /  0km/h - -
Wind- -
Pressure: 30.05 in /  1017.5 hPa 30.01 in /  1016.1 hPa -
Precipitation: 0.00 in /  0 mm    
 
 
Tabular Data for January 13, 2022
Time Temperature Dew Point Pressure Wind Wind Speed Wind Gust Humidity Rainfall Rate (Hourly) solar
00:04 34 °F /  1.1 °C 25.5 °F /  -3.6 °C 30.05in /  1017.5hPa Calm     70.8% 0.00in /  0mm 0 W/m2
00:09 33.8 °F /  1 °C 24.7 °F /  -4.1 °C 30.05in /  1017.5hPa Calm     69% 0.00in /  0mm 0 W/m2
00:14 33.7 °F /  0.9 °C 24.6 °F /  -4.1 °C 30.05in /  1017.5hPa Calm     68.9% 0.00in /  0mm 0 W/m2
00:19 33.7 °F /  0.9 °C 24.5 °F /  -4.2 °C 30.05in /  1017.5hPa Calm     68.5% 0.00in /  0mm 0 W/m2
00:24 33.7 °F /  0.9 °C 24.4 °F /  -4.2 °C 30.05in /  1017.5hPa Calm     68.5% 0.00in /  0mm 0 W/m2
00:29 33.6 °F /  0.9 °C 24.4 °F /  -4.2 °C 30.05in /  1017.5hPa Calm     68.7% 0.00in /  0mm 0 W/m2
00:34 33.6 °F /  0.9 °C 24.4 °F /  -4.2 °C 30.04in /  1017.2hPa Calm     68.6% 0.00in /  0mm 0 W/m2
00:39 33.5 °F /  0.8 °C 24.4 °F /  -4.2 °C 30.05in /  1017.5hPa Calm     68.8% 0.00in /  0mm 0 W/m2
00:44 33.5 °F /  0.8 °C 24.1 °F /  -4.4 °C 30.05in /  1017.5hPa Calm     68% 0.00in /  0mm 0 W/m2
00:49 33.5 °F /  0.8 °C 24.1 °F /  -4.4 °C 30.05in /  1017.5hPa Calm     68% 0.00in /  0mm 0 W/m2
00:54 33.4 °F /  0.8 °C 23.9 °F /  -4.5 °C 30.04in /  1017.2hPa Calm     68% 0.00in /  0mm 0 W/m2
00:59 33.2 °F /  0.7 °C 23.8 °F /  -4.6 °C 30.04in /  1017.2hPa Calm     68% 0.00in /  0mm 0 W/m2
01:04 33 °F /  0.6 °C 23.9 °F /  -4.5 °C 30.04in /  1017.2hPa Calm     68.9% 0.00in /  0mm 0 W/m2
01:09 32.8 °F /  0.4 °C 23.8 °F /  -4.6 °C 30.04in /  1017.2hPa Calm     69% 0.00in /  0mm 0 W/m2
01:14 32.6 °F /  0.3 °C 23.6 °F /  -4.7 °C 30.04in /  1017.2hPa Calm     69% 0.00in /  0mm 0 W/m2
01:19 32.5 °F /  0.3 °C 23.5 °F /  -4.7 °C 30.04in /  1017.2hPa Calm     69% 0.00in /  0mm 0 W/m2
01:24 32.4 °F /  0.2 °C 23.4 °F /  -4.8 °C 30.04in /  1017.2hPa Calm     69.2% 0.00in /  0mm 0 W/m2
01:29 32.2 °F /  0.1 °C 23.6 °F /  -4.7 °C 30.04in /  1017.2hPa Calm     70% 0.00in /  0mm 0 W/m2
01:34 32.1 °F /  0.1 °C 23.5 °F /  -4.7 °C 30.04in /  1017.2hPa Calm     70% 0.00in /  0mm 0 W/m2
01:39 32.1 °F /  0.1 °C 23.4 °F /  -4.8 °C 30.04in /  1017.2hPa Calm     70% 0.00in /  0mm 0 W/m2
01:44 32.1 °F /  0.1 °C 23.4 °F /  -4.8 °C 30.04in /  1017.2hPa Calm     70% 0.00in /  0mm 0 W/m2
01:49 32.1 °F /  0.1 °C 23.4 °F /  -4.8 °C 30.04in /  1017.2hPa Calm     70% 0.00in /  0mm 0 W/m2
01:54 32.1 °F /  0.1 °C 23.4 °F /  -4.8 °C 30.04in /  1017.2hPa Calm     70% 0.00in /  0mm 0 W/m2
01:59 32 °F /  0 °C 23.5 °F /  -4.7 °C 30.04in /  1017.2hPa Calm     70.4% 0.00in /  0mm 0 W/m2
02:04 32 °F /  0 °C 23.3 °F /  -4.8 °C 30.04in /  1017.2hPa Calm     70% 0.00in /  0mm 0 W/m2
02:09 32 °F /  0 °C 23.3 °F /  -4.8 °C 30.04in /  1017.2hPa Calm     70% 0.00in /  0mm 0 W/m2
02:14 32 °F /  0 °C 23.3 °F /  -4.8 °C 30.04in /  1017.2hPa Calm     70% 0.00in /  0mm 0 W/m2
02:19 32 °F /  0 °C 23.3 °F /  -4.8 °C 30.04in /  1017.2hPa Calm     70% 0.00in /  0mm 0 W/m2
02:24 31.9 °F /  -0.1 °C 23.2 °F /  -4.9 °C 30.04in /  1017.2hPa Calm     70% 0.00in /  0mm 0 W/m2
02:29 31.9 °F /  -0.1 °C 23.2 °F /  -4.9 °C 30.04in /  1017.2hPa Calm     70% 0.00in /  0mm 0 W/m2
02:34 31.7 °F /  -0.2 °C 23.1 °F /  -4.9 °C 30.04in /  1017.2hPa Calm     70% 0.00in /  0mm 0 W/m2
02:39 31.6 °F /  -0.2 °C 23.3 °F /  -4.8 °C 30.04in /  1017.2hPa Calm     71% 0.00in /  0mm 0 W/m2
02:44 31.5 °F /  -0.3 °C 23.2 °F /  -4.9 °C 30.04in /  1017.2hPa Calm     71% 0.00in /  0mm 0 W/m2
02:49 31.4 °F /  -0.3 °C 23.1 °F /  -4.9 °C 30.04in /  1017.2hPa Calm     71% 0.00in /  0mm 0 W/m2
02:54 31.3 °F /  -0.4 °C 23.3 °F /  -4.8 °C 30.04in /  1017.2hPa Calm     71.9% 0.00in /  0mm 0 W/m2
02:59 31.3 °F /  -0.4 °C 23.5 °F /  -4.7 °C 30.04in /  1017.2hPa Calm     72.4% 0.00in /  0mm 0 W/m2
03:04 31.3 °F /  -0.4 °C 23.7 °F /  -4.6 °C 30.04in /  1017.2hPa Calm     73% 0.00in /  0mm 0 W/m2
03:09 31.3 °F /  -0.4 °C 23.7 °F /  -4.6 °C 30.04in /  1017.2hPa Calm     73% 0.00in /  0mm 0 W/m2
03:14 31.3 °F /  -0.4 °C 23.7 °F /  -4.6 °C 30.03in /  1016.8hPa Calm     73% 0.00in /  0mm 0 W/m2
03:19 31.3 °F /  -0.4 °C 23.7 °F /  -4.6 °C 30.02in /  1016.5hPa Calm     73% 0.00in /  0mm 0 W/m2
03:24 31.3 °F /  -0.4 °C 23.7 °F /  -4.6 °C 30.02in /  1016.5hPa Calm     73% 0.00in /  0mm 0 W/m2
03:29 31.3 °F /  -0.4 °C 23.6 °F /  -4.7 °C 30.02in /  1016.5hPa Calm     73% 0.00in /  0mm 0 W/m2
03:34 31.2 °F /  -0.4 °C 23.6 °F /  -4.7 °C 30.02in /  1016.5hPa Calm     73% 0.00in /  0mm 0 W/m2
03:39 31.2 °F /  -0.4 °C 23.6 °F /  -4.7 °C 30.02in /  1016.5hPa Calm     73% 0.00in /  0mm 0 W/m2
03:44 31.2 °F /  -0.4 °C 23.7 °F /  -4.6 °C 30.02in /  1016.5hPa Calm     73.4% 0.00in /  0mm 0 W/m2
03:49 31.2 °F /  -0.4 °C 23.9 °F /  -4.5 °C 30.02in /  1016.5hPa Calm     74% 0.00in /  0mm 0 W/m2
03:54 31.2 °F /  -0.4 °C 23.9 °F /  -4.5 °C 30.01in /  1016.1hPa Calm     74% 0.00in /  0mm 0 W/m2
03:59 31.2 °F /  -0.4 °C 23.9 °F /  -4.5 °C 30.01in /  1016.1hPa Calm     74% 0.00in /  0mm 0 W/m2
04:00 31.2 °F /  -0.4 °C 23.9 °F /  -4.5 °C 30.01in /  1016.1hPa Calm     74% 0.00in /  0mm 0 W/m2
04:09 31.1 °F /  -0.5 °C 23.8 °F /  -4.6 °C 30.02in /  1016.5hPa Calm     74% 0.00in /  0mm 0 W/m2
04:14 31 °F /  -0.6 °C 23.7 °F /  -4.6 °C 30.02in /  1016.5hPa Calm     74% 0.00in /  0mm 0 W/m2
04:19 30.8 °F /  -0.7 °C 23.7 °F /  -4.6 °C 30.01in /  1016.1hPa Calm     74.5% 0.00in /  0mm 0 W/m2
04:24 30.6 °F /  -0.8 °C 23.6 °F /  -4.7 °C 30.01in /  1016.1hPa Calm     75% 0.00in /  0mm 0 W/m2
04:29 30.4 °F /  -0.9 °C 23.5 °F /  -4.7 °C 30.01in /  1016.1hPa Calm     75% 0.00in /  0mm 0 W/m2
04:34 30.2 °F /  -1 °C 23.3 °F /  -4.8 °C 30.01in /  1016.1hPa Calm     75% 0.00in /  0mm 0 W/m2
04:39 30 °F /  -1.1 °C 23.3 °F /  -4.8 °C 30.01in /  1016.1hPa Calm     75.8% 0.00in /  0mm 0 W/m2
04:44 29.8 °F /  -1.2 °C 23.2 °F /  -4.9 °C 30.01in /  1016.1hPa Calm     76% 0.00in /  0mm 0 W/m2
04:49 29.6 °F /  -1.3 °C 23.2 °F /  -4.9 °C 30.01in /  1016.1hPa Calm     76.7% 0.00in /  0mm 0 W/m2
04:54 29.4 °F /  -1.4 °C 23.2 °F /  -4.9 °C 30.02in /  1016.5hPa Calm     77.2% 0.00in /  0mm 0 W/m2
04:59 29.2 °F /  -1.6 °C 23.3 °F /  -4.8 °C 30.02in /  1016.5hPa Calm     78% 0.00in /  0mm 0 W/m2
05:04 29.1 °F /  -1.6 °C 23.1 °F /  -4.9 °C 30.02in /  1016.5hPa Calm     78% 0.00in /  0mm 0 W/m2
05:09 29 °F /  -1.7 °C 23 °F /  -5 °C 30.01in /  1016.1hPa Calm     78% 0.00in /  0mm 0 W/m2
05:14 28.9 °F /  -1.7 °C 22.9 °F /  -5.1 °C 30.02in /  1016.5hPa Calm     78% 0.00in /  0mm 0 W/m2
05:19 28.8 °F /  -1.8 °C 23 °F /  -5 °C 30.02in /  1016.5hPa Calm     78.7% 0.00in /  0mm 0 W/m2
05:24 28.8 °F /  -1.8 °C 23.2 °F /  -4.9 °C 30.02in /  1016.5hPa Calm     79.2% 0.00in /  0mm 0 W/m2
05:29 28.8 °F /  -1.8 °C 23.2 °F /  -4.9 °C 30.02in /  1016.5hPa Calm     79.3% 0.00in /  0mm 0 W/m2
05:34 28.8 °F /  -1.8 °C 23.4 °F /  -4.8 °C 30.02in /  1016.5hPa Calm     80% 0.00in /  0mm 0 W/m2
05:39 28.7 °F /  -1.8 °C 23.3 °F /  -4.8 °C 30.02in /  1016.5hPa Calm     80% 0.00in /  0mm 0 W/m2
05:44 28.7 °F /  -1.8 °C 23.3 °F /  -4.8 °C 30.02in /  1016.5hPa Calm     80% 0.00in /  0mm 0 W/m2
05:49 28.7 °F /  -1.8 °C 23.3 °F /  -4.8 °C 30.02in /  1016.5hPa Calm     80% 0.00in /  0mm 0 W/m2
05:54 28.8 °F /  -1.8 °C 23.5 °F /  -4.7 °C 30.02in /  1016.5hPa Calm     80% 0.00in /  0mm 0 W/m2
05:59 29 °F /  -1.7 °C 23.6 °F /  -4.7 °C 30.02in /  1016.5hPa Calm     80% 0.00in /  0mm 0 W/m2
06:04 29.1 °F /  -1.6 °C 23.7 °F /  -4.6 °C 30.01in /  1016.1hPa Calm     80% 0.00in /  0mm 0 W/m2
06:09 29.1 °F /  -1.6 °C 23.6 °F /  -4.7 °C 30.02in /  1016.5hPa Calm     79.7% 0.00in /  0mm 0 W/m2
06:14 29.1 °F /  -1.6 °C 23.4 °F /  -4.8 °C 30.02in /  1016.5hPa Calm     79% 0.00in /  0mm 0 W/m2
06:19 29.1 °F /  -1.6 °C 23.4 °F /  -4.8 °C 30.02in /  1016.5hPa Calm     79% 0.00in /  0mm 0 W/m2
06:24 29.1 °F /  -1.6 °C 23.4 °F /  -4.8 °C 30.02in /  1016.5hPa Calm     79% 0.00in /  0mm 0 W/m2
06:28 29.1 °F /  -1.6 °C 23.5 °F /  -4.7 °C 30.02in /  1016.5hPa Calm     79.3% 0.00in /  0mm 0 W/m2
Hartford County Weather
Compliments of Weather Underground - 2 mb